Terminal Aerodrome Forecast
Issued by NWS

Current Version | Previous Version | Graphics & Text | Print | Product List | Glossary On
Versions: 1 2 3 4 5 6 7 8 9 10 11 12 13 14 15 16 17 18 19
000
FTUS41 KPBZ 210533
TAFMGW
TAF
KMGW 210533Z 2106/2206 19003KT P6SM FEW080
     FM211300 22005KT P6SM BKN100
     FM211900 25008KT P6SM VCTS BKN050CB
     FM220000 25005KT P6SM BKN070=

USA.gov is the U.S. government's official web portal to all federal, state and local government web resources and services.